Aviation Digital Data Service (ADDS)

Output produced by METARs form (0157 UTC 17 October 2017)
found at http://www.aviationweather.gov/adds/metars/
 
KMGW 170153Z 00000KT 10SM CLR 07/04 A3030 RMK AO2 SLP265 T00720039
KMGW 170053Z 00000KT 10SM CLR 09/03 A3027 RMK AO2 SLP255 T00890033
KMGW 162353Z 00000KT 10SM CLR 11/03 A3026 RMK AO2 SLP249 60003 T01110028 10150 20100 53009
KMGW 162253Z 00000KT 10SM BKN060 12/03 A3025 RMK AO2 SLP243 T01170033
KMGW 162153Z 00000KT 10SM SCT080 13/03 A3024 RMK AO2 SLP239 T01330033
KMGW 162053Z 34006KT 10SM SCT044 13/04 A3023 RMK AO2 SLP237 60003 T01330039 55002
KMGW 162045Z 01007KT 1 1/2SM HZ BKN044 13/04 A3023 RMK AO2 T01330044
KMGW 161953Z 35009G17KT 10SM SCT045 14/03 A3023 RMK AO2 SLP235 T01390033
KMGW 161853Z 31004KT 10SM BKN045 OVC055 11/07 A3024 RMK AO2 RAB22E46 SLP240 P0003 T01060072
KMGW 161753Z 34008KT 310V010 10SM BKN030 13/05 A3023 RMK AO2 RAB06E17 SLP234 P0000 60000 T01330050 10133 20094 50000
KMGW 161653Z 33008G16KT 10SM SCT029 BKN039 OVC047 12/04 A3024 RMK AO2 SLP239 T01220044
KMGW 161632Z 33007KT 10SM SCT024 BKN031 OVC041 12/06 A3024 RMK AO2 T01220056
KMGW 161606Z VRB04KT 10SM BKN021 BKN032 OVC040 12/06 A3024 RMK AO2 T01170061
KMGW 161553Z 33003KT 10SM SCT020 BKN030 OVC037 11/06 A3024 RMK AO2 SLP239 T01110056
KMGW 161522Z 33003KT 10SM SCT019 BKN029 OVC055 11/06 A3023 RMK AO2 T01060056
KMGW 161453Z VRB04KT 10SM SCT035 BKN046 OVC055 11/06 A3023 RMK AO2 RAB10E39 SLP235 P0000 60000 T01060056 51009
KMGW 161353Z 34004KT 10SM SCT025 OVC045 10/05 A3022 RMK AO2 SLP232 T01000050
KMGW 161350Z 35005KT 10SM SCT025 SCT039 OVC047 10/05 A3022 RMK AO2
KMGW 161328Z 34006KT 10SM BKN024 OVC055 10/06 A3021 RMK AO2 T01000056
KMGW 161253Z 35007KT 10SM FEW019 SCT030 OVC049 10/06 A3020 RMK AO2 SLP225 T01000056
KMGW 161251Z 36007KT 10SM FEW019 BKN049 OVC055 10/06 A3020 RMK AO2
KMGW 161153Z 33006KT 10SM BKN023 BKN029 OVC050 11/06 A3017 RMK AO2 SLP213 70028 T01060056 10128 20106 53020
KMGW 161053Z AUTO VRB05KT 10SM OVC055 11/06 A3014 RMK AO2 SLP202 T01110056
KMGW 161037Z AUTO VRB06KT 10SM FEW025 SCT031 OVC055 11/07 A3013 RMK AO2 T01110067
KMGW 160953Z AUTO VRB04KT 10SM BKN021 BKN027 OVC055 12/07 A3012 RMK AO2 SLP195 T01170072
KMGW 160909Z AUTO 00000KT 10SM SCT020 BKN027 OVC055 12/08 A3011 RMK AO2 T01170078
KMGW 160853Z AUTO VRB03KT 10SM FEW026 OVC055 12/08 A3011 RMK AO2 SLP190 T01170078 53004
KMGW 160753Z AUTO 31005KT 10SM BKN036 OVC055 12/08 A3009 RMK AO2 SLP185 T01220078
KMGW 160653Z AUTO VRB05KT 10SM SCT023 SCT028 OVC055 12/08 A3010 RMK AO2 SLP186 T01220078
KMGW 160553Z AUTO 29007KT 10SM BKN032 OVC048 13/08 A3009 RMK AO2 SLP184 60009 T01280083 10183 20128 51012
KMGW 160542Z AUTO 30007KT 10SM OVC032 13/08 A3009 RMK AO2 T01280083
KMGW 160515Z AUTO 30004KT 10SM BKN027 BKN032 OVC047 13/09 A3008 RMK AO2 T01330089
KMGW 160503Z AUTO 29005KT 10SM SCT025 BKN032 OVC047 13/09 A3008 RMK AO2 T01330089
KMGW 160453Z AUTO 28006KT 10SM BKN025 BKN032 OVC044 13/09 A3008 RMK AO2 SLP179 T01330089 402670133
KMGW 160450Z AUTO 27003KT 10SM BKN025 BKN032 OVC044 13/09 A3008 RMK AO2
KMGW 160442Z AUTO VRB06KT 10SM SCT026 BKN032 OVC046 14/09 A3008 RMK AO2 T01390089
KMGW 160402Z AUTO 27004KT 10SM BKN028 OVC036 14/09 A3006 RMK AO2 T01390094
KMGW 160353Z AUTO 27005KT 10SM SCT026 OVC036 14/10 A3006 RMK AO2 SLP172 T01440100
KMGW 160343Z AUTO 27005KT 10SM BKN028 OVC036 14/10 A3005 RMK AO2 T01440100
KMGW 160329Z AUTO 29004KT 10SM SCT029 OVC036 14/10 A3005 RMK AO2 T01440100
KMGW 160320Z AUTO 28005KT 10SM BKN028 OVC038 14/10 A3005 RMK AO2 T01440100
KMGW 160253Z 30005KT 10SM FEW016 BKN033 OVC070 14/11 A3005 RMK AO2 RAE05 SLP168 P0000 60009 T01440111 51024
KMGW 160223Z 31006KT 10SM BKN016 BKN020 OVC070 15/12 A3003 RMK AO2 RAE05 P0000 T01500122
KMGW 160211Z 34008KT 280V360 10SM OVC014 16/13 A3003 RMK AO2 RAE05 P0000 T01560128
KMGW 160201Z 33006KT 9SM -RA OVC016 16/13 A3002 RMK AO2 P0000 T01560133